Time;durP1;ratioP1;P1;durP2;ratioP2;P2;SDS_P1;SDS_P2;PMS_P1;PMS_P2;Temp;Humidity;BMP_temperature;BMP_pressure;BME280_temperature;BME280_humidity;BME280_pressure;Samples;Min_cycle;Max_cycle;Signal;HPM_P1;HPM_P2
2022/05/30 00:01:46;;;;;;;4.03;1.90;;;10.90;99.90;;;;;;5088442;28;20853;-86
2022/05/30 00:04:13;;;;;;;4.13;2.10;;;11.00;99.90;;;;;;5066024;28;20379;-87
2022/05/30 00:06:40;;;;;;;5.93;2.20;;;10.90;99.90;;;;;;5088037;28;20380;-86
2022/05/30 00:09:08;;;;;;;5.50;2.53;;;10.90;99.90;;;;;;5070217;28;20366;-86
2022/05/30 00:11:36;;;;;;;6.07;3.30;;;10.80;99.90;;;;;;5088135;28;20372;-87
2022/05/30 00:14:03;;;;;;;5.18;3.28;;;10.90;99.90;;;;;;5088101;28;20372;-87
2022/05/30 00:16:30;;;;;;;6.70;2.92;;;10.90;99.90;;;;;;5088058;28;20372;-86
2022/05/30 00:18:57;;;;;;;3.75;2.90;;;11.00;99.90;;;;;;5069987;28;20376;-86
2022/05/30 00:21:26;;;;;;;6.60;2.97;;;11.00;99.90;;;;;;5088111;28;20368;-86
2022/05/30 00:23:54;;;;;;;5.43;3.33;;;11.10;99.90;;;;;;5089206;28;20364;-86
2022/05/30 00:26:23;;;;;;;4.72;3.20;;;11.00;99.90;;;;;;5091865;28;20400;-87
2022/05/30 00:28:51;;;;;;;4.93;2.90;;;11.00;99.90;;;;;;5092071;28;20402;-86
2022/05/30 00:31:19;;;;;;;3.67;2.42;;;11.00;99.90;;;;;;5091807;28;20942;-86
2022/05/30 00:33:47;;;;;;;5.00;2.85;;;11.00;99.90;;;;;;5091829;28;20376;-87
2022/05/30 00:36:14;;;;;;;5.47;3.00;;;11.10;99.90;;;;;;5071494;28;20421;-88
2022/05/30 00:38:41;;;;;;;5.32;3.70;;;11.20;99.90;;;;;;5053623;28;20421;-87
2022/05/30 00:41:08;;;;;;;6.72;3.15;;;11.30;99.90;;;;;;5072458;28;20378;-87
2022/05/30 00:43:38;;;;;;;5.10;2.60;;;11.30;99.90;;;;;;5071726;28;20366;-87
2022/05/30 00:46:12;;;;;;;5.70;2.90;;;11.40;99.90;;;;;;5071283;28;20888;-88
2022/05/30 00:48:57;;;;;;;4.32;3.08;;;11.40;99.90;;;;;;5071351;28;20382;-87
2022/05/30 00:51:33;;;;;;;6.30;3.30;;;11.40;99.90;;;;;;5071709;28;20727;-87
2022/05/30 00:54:01;;;;;;;6.03;2.72;;;11.40;99.90;;;;;;5053075;28;20750;-87
2022/05/30 00:56:37;;;;;;;5.38;2.50;;;11.40;99.90;;;;;;5070946;28;20381;-87
2022/05/30 00:59:05;;;;;;;6.75;2.00;;;11.50;99.90;;;;;;5071088;28;20366;-88
2022/05/30 01:01:34;;;;;;;4.78;1.63;;;11.50;99.90;;;;;;5071035;28;20461;-87
2022/05/30 01:06:51;;;;;;;2.35;1.15;;;11.70;99.90;;;;;;5071337;28;20385;-87
2022/05/30 01:09:23;;;;;;;1.77;1.00;;;11.70;99.90;;;;;;5070744;28;20365;-87
2022/05/30 01:11:58;;;;;;;1.50;0.82;;;11.90;99.90;;;;;;5071097;28;20412;-87
2022/05/30 01:14:28;;;;;;;2.38;0.88;;;12.00;99.90;;;;;;5070748;28;20722;-87
2022/05/30 01:16:56;;;;;;;1.45;0.73;;;12.00;99.90;;;;;;5070806;28;20382;-87
2022/05/30 01:19:49;;;;;;;1.80;0.90;;;12.20;99.90;;;;;;5070577;28;20441;-87
2022/05/30 01:22:43;;;;;;;2.60;0.90;;;12.40;99.90;;;;;;5060294;28;20393;-87
2022/05/30 01:25:48;;;;;;;1.73;0.90;;;12.60;99.90;;;;;;5070977;28;20436;-87
2022/05/30 01:28:43;;;;;;;1.60;0.70;;;12.70;99.90;;;;;;5071035;28;20363;-87
2022/05/30 01:31:11;;;;;;;2.42;0.80;;;12.90;99.90;;;;;;5070292;28;20373;-87
2022/05/30 01:33:38;;;;;;;2.65;0.90;;;13.10;99.90;;;;;;5052416;28;20409;-87
2022/05/30 01:36:06;;;;;;;1.92;0.80;;;13.40;99.90;;;;;;5089107;28;20384;-87
2022/05/30 01:38:33;;;;;;;3.05;0.75;;;13.70;99.90;;;;;;5090479;28;20368;-85
2022/05/30 01:41:00;;;;;;;2.10;0.70;;;13.90;99.90;;;;;;5090392;28;20383;-85
2022/05/30 01:43:27;;;;;;;2.58;0.63;;;14.30;99.90;;;;;;5090453;28;20490;-87
2022/05/30 01:45:54;;;;;;;1.95;0.60;;;14.20;99.90;;;;;;5090626;28;20415;-86
2022/05/30 01:48:22;;;;;;;2.37;0.60;;;14.10;99.90;;;;;;5090289;28;20451;-86
2022/05/30 01:50:49;;;;;;;1.90;0.60;;;14.10;99.90;;;;;;5090369;28;20404;-86
2022/05/30 01:53:16;;;;;;;2.13;0.52;;;14.00;99.90;;;;;;5090156;28;20360;-87
2022/05/30 01:55:43;;;;;;;1.48;0.60;;;14.00;99.90;;;;;;5090956;28;20468;-86
2022/05/30 01:58:10;;;;;;;1.73;0.50;;;14.20;99.90;;;;;;5090614;28;20375;-86
2022/05/30 02:00:37;;;;;;;1.07;0.50;;;14.40;99.90;;;;;;5090628;28;20982;-86
2022/05/30 02:03:04;;;;;;;1.27;0.60;;;14.80;99.90;;;;;;5090628;28;20372;-85
2022/05/30 02:05:33;;;;;;;0.70;0.52;;;15.20;99.90;;;;;;5090156;28;20485;-87
2022/05/30 02:08:01;;;;;;;1.88;0.60;;;15.50;99.90;;;;;;5071765;28;20376;-87
2022/05/30 02:10:30;;;;;;;1.67;0.65;;;15.70;99.90;;;;;;5071609;28;20391;-86
2022/05/30 02:12:57;;;;;;;1.45;0.60;;;15.80;99.90;;;;;;5089948;28;20368;-86
2022/05/30 02:15:27;;;;;;;1.40;0.70;;;15.90;99.90;;;;;;5089708;28;20394;-85
2022/05/30 02:17:54;;;;;;;0.85;0.47;;;15.90;99.90;;;;;;5089716;28;20430;-87
2022/05/30 02:20:21;;;;;;;1.27;0.47;;;15.90;99.90;;;;;;5089611;28;20766;-86
2022/05/30 02:22:48;;;;;;;1.40;0.60;;;15.70;99.90;;;;;;5089718;28;20409;-87
2022/05/30 02:25:15;;;;;;;1.02;0.60;;;15.70;99.90;;;;;;5089552;28;20405;-84
2022/05/30 02:27:42;;;;;;;1.85;0.60;;;15.70;99.90;;;;;;5089666;28;20843;-85
2022/05/30 02:30:10;;;;;;;2.42;0.60;;;15.70;99.90;;;;;;5089554;28;20774;-84
2022/05/30 02:32:37;;;;;;;1.73;0.70;;;15.60;99.90;;;;;;5089474;28;20369;-85
2022/05/30 02:37:50;;;;;;;0.90;0.63;;;15.40;99.90;;;;;;5089718;28;20452;-85
2022/05/30 02:40:17;;;;;;;2.83;0.60;;;15.20;99.90;;;;;;5089212;28;20851;-86
2022/05/30 02:42:44;;;;;;;3.67;0.75;;;15.20;99.90;;;;;;5089336;28;20376;-86
2022/05/30 02:45:11;;;;;;;3.13;0.80;;;15.20;99.90;;;;;;5070896;28;20392;-85
2022/05/30 02:47:38;;;;;;;1.38;0.60;;;15.20;99.90;;;;;;5088760;28;20376;-85
2022/05/30 02:50:06;;;;;;;4.00;0.90;;;15.20;99.90;;;;;;5089185;28;20965;-85
2022/05/30 02:52:33;;;;;;;2.67;0.68;;;15.20;99.90;;;;;;5089266;28;20419;-85
2022/05/30 02:55:00;;;;;;;3.70;0.82;;;15.10;99.90;;;;;;5089128;28;20372;-86
2022/05/30 02:57:27;;;;;;;2.72;0.80;;;15.10;99.90;;;;;;5088897;28;20368;-85
2022/05/30 02:59:54;;;;;;;1.33;0.70;;;15.00;99.90;;;;;;5089017;28;20381;-86
2022/05/30 03:02:21;;;;;;;2.63;0.70;;;14.80;99.90;;;;;;5089032;28;20720;-86
2022/05/30 03:04:48;;;;;;;2.70;0.60;;;15.10;99.90;;;;;;5088804;28;20406;-86
2022/05/30 03:07:18;;;;;;;2.00;0.60;;;15.00;99.90;;;;;;5089464;28;20379;-86
2022/05/30 03:09:45;;;;;;;1.70;0.60;;;15.10;99.90;;;;;;5088797;28;20380;-86
2022/05/30 03:12:12;;;;;;;1.67;0.57;;;15.20;99.90;;;;;;5088700;28;20464;-85
2022/05/30 03:14:39;;;;;;;1.80;0.70;;;15.40;99.90;;;;;;5088630;28;20467;-85
2022/05/30 03:17:06;;;;;;;0.90;0.60;;;15.60;99.90;;;;;;5088831;28;20448;-85
2022/05/30 03:19:33;;;;;;;1.83;0.60;;;16.00;99.90;;;;;;5071407;28;20864;-85
2022/05/30 03:22:00;;;;;;;1.98;0.60;;;16.40;99.90;;;;;;5088979;28;20407;-85
2022/05/30 03:24:27;;;;;;;0.60;0.50;;;16.50;99.90;;;;;;5088560;28;20383;-84
2022/05/30 03:26:53;;;;;;;1.40;0.40;;;16.50;99.90;;;;;;5088640;28;20907;-85
2022/05/30 03:29:20;;;;;;;1.30;0.47;;;16.50;99.90;;;;;;5088695;28;20844;-85
2022/05/30 03:31:47;;;;;;;2.60;0.63;;;16.40;99.90;;;;;;5070355;28;20383;-85
2022/05/30 03:34:14;;;;;;;1.90;0.50;;;16.30;99.90;;;;;;5080468;28;20732;-85
2022/05/30 03:36:42;;;;;;;1.70;0.60;;;16.30;99.90;;;;;;5088939;28;20368;-85
2022/05/30 03:39:09;;;;;;;0.80;0.60;;;16.20;99.90;;;;;;5088702;28;20372;-85
2022/05/30 03:41:35;;;;;;;0.70;0.50;;;16.20;99.90;;;;;;5088503;28;20376;-85
2022/05/30 03:44:02;;;;;;;1.15;0.60;;;16.10;99.90;;;;;;5088452;28;20371;-85
2022/05/30 03:46:31;;;;;;;1.70;0.60;;;16.00;99.90;;;;;;5088600;28;20435;-84
2022/05/30 03:48:58;;;;;;;2.00;0.60;;;16.00;99.90;;;;;;5088407;28;20369;-85
2022/05/30 03:51:25;;;;;;;2.67;0.50;;;17.50;99.90;;;;;;5088269;28;20871;-85
2022/05/30 03:53:53;;;;;;;1.27;0.55;;;16.10;99.90;;;;;;5088244;28;20378;-84
2022/05/30 03:56:20;;;;;;;0.75;0.50;;;16.00;99.90;;;;;;5088970;28;20437;-85
2022/05/30 03:58:47;;;;;;;1.63;0.60;;;16.00;99.90;;;;;;5089158;28;20368;-85
2022/05/30 04:01:14;;;;;;;0.63;0.50;;;15.90;99.90;;;;;;5092337;28;20475;-85
2022/05/30 04:03:41;;;;;;;1.67;0.70;;;15.80;99.90;;;;;;5092358;28;20364;-84
2022/05/30 04:06:09;;;;;;;1.48;0.65;;;15.70;99.90;;;;;;5092152;28;20395;-84
2022/05/30 04:08:36;;;;;;;0.90;0.50;;;15.60;99.90;;;;;;5092237;28;20863;-85
2022/05/30 04:11:03;;;;;;;1.80;1.10;;;15.60;99.90;;;;;;5092186;28;20376;-85
2022/05/30 04:13:31;;;;;;;1.50;1.40;;;15.60;99.90;;;;;;5092063;28;20368;-85
2022/05/30 04:15:58;;;;;;;2.05;0.90;;;15.80;99.90;;;;;;5092087;28;20395;-85
2022/05/30 04:18:24;;;;;;;1.38;0.80;;;15.80;99.90;;;;;;5092163;28;20368;-85
2022/05/30 04:20:51;;;;;;;2.33;0.70;;;15.80;99.90;;;;;;5092184;28;20432;-85
2022/05/30 04:23:18;;;;;;;1.00;0.93;;;15.70;99.90;;;;;;5091971;28;20372;-84
2022/05/30 04:25:45;;;;;;;1.40;1.30;;;15.50;99.90;;;;;;5092204;28;20740;-84
2022/05/30 04:28:12;;;;;;;1.65;1.20;;;15.40;99.90;;;;;;5091846;28;20375;-84
2022/05/30 04:30:42;;;;;;;1.95;1.50;;;15.40;99.90;;;;;;5073540;28;20748;-85
2022/05/30 04:33:09;;;;;;;3.10;1.10;;;15.30;99.90;;;;;;5073490;28;20372;-84
2022/05/30 04:35:36;;;;;;;1.13;0.80;;;15.40;99.90;;;;;;5085078;28;20486;-85
2022/05/30 04:38:03;;;;;;;1.42;0.70;;;15.30;99.90;;;;;;5091720;28;20361;-84
2022/05/30 04:40:30;;;;;;;0.77;0.70;;;15.20;99.90;;;;;;5091666;28;20373;-85
2022/05/30 04:42:58;;;;;;;1.55;0.70;;;15.20;99.90;;;;;;5091747;28;20387;-85
2022/05/30 04:45:25;;;;;;;1.65;0.77;;;15.10;99.90;;;;;;5091743;28;20752;-84
2022/05/30 04:47:52;;;;;;;1.23;0.60;;;15.00;99.90;;;;;;5091483;28;20716;-85
2022/05/30 04:50:19;;;;;;;1.83;0.60;;;14.90;99.90;;;;;;5091780;28;20929;-85
2022/05/30 04:52:47;;;;;;;1.35;0.70;;;14.90;99.90;;;;;;5091428;28;20429;-85
2022/05/30 04:55:18;;;;;;;0.98;0.60;;;14.90;99.90;;;;;;5091342;28;20387;-84
2022/05/30 04:57:50;;;;;;;2.10;0.70;;;15.00;99.90;;;;;;5091315;28;20360;-85
2022/05/30 05:00:21;;;;;;;2.63;0.80;;;14.90;99.90;;;;;;5091071;28;20463;-85
2022/05/30 05:02:48;;;;;;;1.45;0.70;;;15.00;99.90;;;;;;5091228;28;20368;-85
2022/05/30 05:05:15;;;;;;;3.10;0.70;;;15.00;99.90;;;;;;5091134;28;20393;-84
2022/05/30 05:08:15;;;;;;;1.73;0.50;;;14.90;99.90;;;;;;5091211;28;20379;-84
2022/05/30 05:10:41;;;;;;;1.83;0.65;;;14.90;99.90;;;;;;5009238;28;20387;-85
2022/05/30 05:13:09;;;;;;;0.70;0.60;;;14.70;99.90;;;;;;5009816;28;20855;-84
2022/05/30 05:15:36;;;;;;;2.42;0.80;;;14.60;99.90;;;;;;5009025;28;20379;-84
2022/05/30 05:18:03;;;;;;;1.25;0.95;;;14.50;99.90;;;;;;5009044;28;20787;-85
2022/05/30 05:20:35;;;;;;;2.30;0.80;;;14.60;99.90;;;;;;5008809;28;20463;-84
2022/05/30 05:23:05;;;;;;;2.50;0.68;;;14.50;99.90;;;;;;5009776;28;20889;-85
2022/05/30 05:25:32;;;;;;;0.77;0.70;;;14.40;99.90;;;;;;5008689;28;20450;-84
2022/05/30 05:27:59;;;;;;;1.33;0.70;;;14.30;99.90;;;;;;5008816;28;20394;-83
2022/05/30 05:30:26;;;;;;;2.97;0.90;;;14.20;99.90;;;;;;5008776;28;20375;-85
2022/05/30 05:32:52;;;;;;;2.73;0.80;;;14.10;99.90;;;;;;5008694;28;20391;-84
2022/05/30 05:35:20;;;;;;;1.77;0.90;;;14.10;99.90;;;;;;4991952;28;20504;-85
2022/05/30 05:37:46;;;;;;;1.88;0.80;;;14.00;99.90;;;;;;5008810;28;20491;-85
2022/05/30 05:40:13;;;;;;;3.40;0.90;;;14.00;99.90;;;;;;5008532;28;20783;-84
2022/05/30 05:42:40;;;;;;;2.90;0.90;;;13.90;99.90;;;;;;5008606;28;20746;-85
2022/05/30 05:45:08;;;;;;;3.10;0.98;;;13.80;99.90;;;;;;5008400;28;20415;-85
2022/05/30 05:47:35;;;;;;;2.13;0.82;;;13.60;99.90;;;;;;5043531;28;20717;-84
2022/05/30 05:50:03;;;;;;;2.47;1.05;;;13.50;99.90;;;;;;5090251;28;20372;-84
2022/05/30 05:52:30;;;;;;;1.75;1.20;;;13.50;99.90;;;;;;5090768;28;20381;-85
2022/05/30 05:58:19;;;;;;;7.60;3.53;;;13.30;99.90;;;;;;5090420;28;20425;-84
2022/05/30 06:00:46;;;;;;;8.10;4.57;;;13.10;99.90;;;;;;5090171;28;20763;-84
2022/05/30 06:03:13;;;;;;;5.35;4.72;;;13.00;99.90;;;;;;5090030;28;20372;-85
2022/05/30 06:05:41;;;;;;;7.00;5.20;;;12.90;99.90;;;;;;5088991;28;20411;-86
2022/05/30 06:08:10;;;;;;;7.72;5.32;;;12.90;99.90;;;;;;5090023;28;20855;-84
2022/05/30 06:11:05;;;;;;;6.85;4.88;;;12.80;99.90;;;;;;5089950;28;20451;-84
2022/05/30 06:13:24;;;;;;;7.45;5.30;;;12.60;99.90;;;;;;5089819;28;20373;-84
2022/05/30 06:15:51;;;;;;;8.27;5.00;;;12.50;99.90;;;;;;5089820;28;20770;-88
2022/05/30 06:18:18;;;;;;;8.90;4.40;;;12.50;99.90;;;;;;5089641;28;20430;-83
2022/05/30 06:20:45;;;;;;;8.10;5.30;;;12.50;99.90;;;;;;5089334;28;20376;-84
2022/05/30 06:23:12;;;;;;;9.15;5.10;;;12.60;99.90;;;;;;5087740;28;20839;-83
2022/05/30 06:25:39;;;;;;;8.63;5.07;;;12.50;99.90;;;;;;5089190;28;20937;-83
2022/05/30 06:28:06;;;;;;;9.30;4.30;;;12.50;99.90;;;;;;5090609;28;20755;-85
2022/05/30 06:30:35;;;;;;;11.18;6.45;;;12.30;99.90;;;;;;5089593;28;20396;-85
2022/05/30 06:33:02;;;;;;;12.47;8.10;;;12.20;99.90;;;;;;5089351;28;20361;-85
2022/05/30 06:35:29;;;;;;;13.40;9.93;;;12.00;99.90;;;;;;5089222;28;20403;-86
2022/05/30 06:37:56;;;;;;;23.65;11.30;;;11.80;99.90;;;;;;5089337;28;20369;-88
2022/05/30 06:40:24;;;;;;;18.10;10.43;;;11.20;99.90;;;;;;5089685;28;20373;-88
2022/05/30 06:42:51;;;;;;;14.32;6.03;;;10.90;99.90;;;;;;5071359;28;20414;-87
2022/05/30 06:45:18;;;;;;;12.27;8.80;;;10.60;99.90;;;;;;5089359;28;20526;-88
2022/05/30 06:47:45;;;;;;;11.70;6.90;;;10.50;99.90;;;;;;5090029;28;20723;-87
2022/05/30 06:50:12;;;;;;;14.30;6.63;;;10.50;99.90;;;;;;5081453;28;20521;-87
2022/05/30 06:52:39;;;;;;;7.43;3.78;;;10.40;99.90;;;;;;5089832;28;20463;-86
2022/05/30 06:55:07;;;;;;;3.10;1.90;;;10.20;99.90;;;;;;5071001;28;20387;-88
2022/05/30 07:00:20;;;;;;;2.65;1.30;;;9.90;99.90;;;;;;5089763;28;20410;-86
2022/05/30 07:02:48;;;;;;;2.88;0.98;;;9.90;99.90;;;;;;5088953;28;20507;-85
2022/05/30 07:05:15;;;;;;;1.95;1.00;;;9.90;99.90;;;;;;5089161;28;20385;-85
2022/05/30 07:07:42;;;;;;;1.23;0.80;;;10.00;99.90;;;;;;5089176;28;20388;-85
2022/05/30 07:10:11;;;;;;;2.90;0.90;;;10.20;99.90;;;;;;5089203;28;20380;-87
2022/05/30 07:12:38;;;;;;;1.02;0.70;;;10.40;99.90;;;;;;5088675;28;20388;-87
2022/05/30 07:15:06;;;;;;;1.33;0.75;;;10.60;99.90;;;;;;5088731;28;20407;-87
2022/05/30 07:17:33;;;;;;;2.00;0.80;;;10.50;99.90;;;;;;5070399;28;20452;-85
2022/05/30 07:20:01;;;;;;;1.10;0.60;;;10.50;99.90;;;;;;5088632;28;20384;-84
2022/05/30 07:22:29;;;;;;;1.60;0.70;;;10.50;99.90;;;;;;5088652;28;20383;-84
2022/05/30 07:24:56;;;;;;;1.85;0.80;;;10.50;99.90;;;;;;5089581;28;20457;-85
2022/05/30 07:27:23;;;;;;;1.27;0.90;;;10.50;99.90;;;;;;5089817;28;20376;-80
2022/05/30 07:29:50;;;;;;;11.30;2.60;;;10.40;99.90;;;;;;5089881;28;20379;-85
2022/05/30 07:32:17;;;;;;;5.50;2.00;;;10.50;99.90;;;;;;5070451;28;20380;-84
2022/05/30 07:34:45;;;;;;;2.40;1.40;;;10.60;99.90;;;;;;5090696;28;20457;-84
2022/05/30 07:37:12;;;;;;;1.90;1.30;;;10.60;99.90;;;;;;5090370;28;20457;-85
2022/05/30 07:39:39;;;;;;;1.98;1.30;;;10.70;99.90;;;;;;5088428;28;20368;-89
2022/05/30 07:42:10;;;;;;;1.20;1.10;;;10.60;99.90;;;;;;5088646;28;20451;-86
2022/05/30 07:44:37;;;;;;;2.17;1.27;;;10.70;99.90;;;;;;5089231;28;20732;-89
2022/05/30 07:47:04;;;;;;;1.83;1.20;;;10.70;99.90;;;;;;5088724;28;20479;-87
2022/05/30 07:49:31;;;;;;;2.17;1.10;;;10.60;99.90;;;;;;5088632;28;20372;-88
2022/05/30 07:51:58;;;;;;;2.40;1.20;;;10.70;99.90;;;;;;5088522;28;20372;-86
2022/05/30 07:54:25;;;;;;;2.20;1.30;;;10.60;99.90;;;;;;5070175;28;20950;-87
2022/05/30 07:56:53;;;;;;;1.30;1.20;;;10.50;99.90;;;;;;5088417;28;20785;-86
2022/05/30 07:59:21;;;;;;;1.30;1.20;;;10.40;99.90;;;;;;5088312;28;20856;-89
2022/05/30 08:01:48;;;;;;;1.85;1.20;;;10.30;99.90;;;;;;5088560;28;20376;-88
2022/05/30 08:04:15;;;;;;;2.25;1.20;;;10.30;99.90;;;;;;5091397;28;20365;-87
2022/05/30 08:06:42;;;;;;;1.67;1.40;;;10.20;99.90;;;;;;5090627;28;20423;-92
2022/05/30 08:09:09;;;;;;;1.80;1.40;;;10.10;99.90;;;;;;5089664;28;20375;-87
2022/05/30 08:11:36;;;;;;;1.50;1.40;;;10.10;99.90;;;;;;5088638;28;20380;-83
2022/05/30 08:14:03;;;;;;;5.18;4.57;;;10.00;99.90;;;;;;5087979;28;20372;-85
2022/05/30 08:16:30;;;;;;;9.38;8.35;;;10.00;99.90;;;;;;5070063;28;20506;-86
2022/05/30 08:18:57;;;;;;;78.90;67.50;;;10.00;99.90;;;;;;5087906;28;20724;-87
2022/05/30 08:21:24;;;;;;;84.82;66.57;;;9.80;99.90;;;;;;5087736;28;20380;-89
2022/05/30 08:23:51;;;;;;;117.90;83.20;;;9.80;99.90;;;;;;5087981;28;20456;-84
2022/05/30 08:26:18;;;;;;;21.55;14.02;;;9.80;99.90;;;;;;5087999;28;20747;-86
2022/05/30 08:28:45;;;;;;;5.90;4.40;;;9.70;99.90;;;;;;5091239;28;20388;-89
2022/05/30 08:31:12;;;;;;;2.17;1.97;;;9.80;99.90;;;;;;5089552;28;20790;-81
2022/05/30 08:33:39;;;;;;;2.95;2.50;;;9.90;99.90;;;;;;5089666;28;20384;-82
2022/05/30 08:36:09;;;;;;;2.67;2.22;;;10.00;99.90;;;;;;5088298;28;20411;-88
2022/05/30 08:38:37;;;;;;;2.60;2.35;;;10.00;99.90;;;;;;5088467;28;20376;-89
2022/05/30 08:44:01;;;;;;;2.53;1.88;;;10.00;99.90;;;;;;5096045;28;20363;-83
2022/05/30 08:46:52;;;;;;;1.98;1.50;;;9.80;99.90;;;;;;5074240;28;20457;-83
2022/05/30 08:49:28;;;;;;;2.55;1.80;;;9.80;99.90;;;;;;5092295;28;20372;-87
2022/05/30 08:52:18;;;;;;;2.00;1.50;;;9.70;99.90;;;;;;5073949;28;20379;-84
2022/05/30 08:55:32;;;;;;;2.55;1.83;;;9.70;99.90;;;;;;5091299;28;20515;-82
2022/05/30 08:58:35;;;;;;;3.00;1.60;;;9.70;99.90;;;;;;5074854;28;20376;-84
2022/05/30 09:01:27;;;;;;;2.38;1.70;;;9.60;99.90;;;;;;5091792;28;20364;-81
2022/05/30 09:04:09;;;;;;;2.20;1.83;;;9.70;99.90;;;;;;4991748;28;20797;-82
2022/05/30 09:07:00;;;;;;;2.80;1.90;;;9.70;99.90;;;;;;4989611;28;20408;-85
2022/05/30 09:09:38;;;;;;;2.55;1.95;;;9.70;99.90;;;;;;4991431;28;20385;-89
2022/05/30 09:12:18;;;;;;;2.25;2.00;;;9.60;99.90;;;;;;4990121;28;20459;-85
2022/05/30 09:18:35;;;;;;;2.28;1.70;;;9.50;99.90;;;;;;4989734;28;20776;-85
2022/05/30 09:21:03;;;;;;;2.05;1.45;;;9.50;99.90;;;;;;4989693;28;20893;-83
2022/05/30 09:23:30;;;;;;;2.15;1.30;;;9.50;99.90;;;;;;4989411;28;20380;-84
2022/05/30 09:25:57;;;;;;;2.22;1.33;;;9.40;99.90;;;;;;4989383;28;20416;-83
2022/05/30 09:28:25;;;;;;;2.75;1.20;;;9.40;99.90;;;;;;4989261;28;20390;-84
2022/05/30 09:31:29;;;;;;;1.67;1.30;;;9.40;99.90;;;;;;4989272;28;20400;-83
2022/05/30 09:33:59;;;;;;;1.58;1.30;;;9.40;99.90;;;;;;4990436;28;20515;-83
2022/05/30 09:36:48;;;;;;;2.38;1.80;;;9.30;99.90;;;;;;5007970;28;21334;-83
2022/05/30 09:39:19;;;;;;;2.88;2.28;;;9.30;99.90;;;;;;5008644;28;20433;-83
2022/05/30 09:41:48;;;;;;;3.33;1.70;;;9.50;99.90;;;;;;5078701;28;20483;-83
2022/05/30 09:44:30;;;;;;;2.70;1.80;;;9.60;99.90;;;;;;5090487;28;20674;-82
2022/05/30 09:47:05;;;;;;;1.60;1.50;;;9.70;99.90;;;;;;5090436;28;20388;-81
2022/05/30 09:49:45;;;;;;;4.88;2.30;;;9.80;99.90;;;;;;5090881;28;20375;-82
2022/05/30 09:52:34;;;;;;;6.00;4.57;;;9.70;99.90;;;;;;5090435;28;20476;-82
2022/05/30 09:55:20;;;;;;;7.38;4.60;;;9.80;99.90;;;;;;5092954;28;20349;-84
2022/05/30 09:57:48;;;;;;;5.22;3.55;;;9.70;99.90;;;;;;5090182;28;20380;-83
2022/05/30 10:00:33;;;;;;;3.25;2.47;;;9.70;99.90;;;;;;5090200;28;20404;-83
2022/05/30 10:03:12;;;;;;;2.42;1.60;;;9.50;99.90;;;;;;5090505;28;20375;-84
2022/05/30 10:05:40;;;;;;;2.85;1.30;;;9.50;99.90;;;;;;5090172;28;20400;-84
2022/05/30 10:08:24;;;;;;;1.42;1.33;;;9.40;99.90;;;;;;5090093;28;20460;-82
2022/05/30 10:10:54;;;;;;;3.73;1.40;;;9.30;99.90;;;;;;5090033;28;20736;-84
2022/05/30 10:13:37;;;;;;;1.30;1.20;;;9.30;99.90;;;;;;5089882;28;20731;-82
2022/05/30 10:16:07;;;;;;;1.42;1.15;;;9.20;99.90;;;;;;5090931;28;20759;-84
2022/05/30 10:18:59;;;;;;;1.37;1.13;;;9.20;99.90;;;;;;5089922;28;20372;-82
2022/05/30 10:28:16;;;;;;;1.20;1.10;;;9.00;99.90;;;;;;5008096;28;20409;-83
2022/05/30 10:30:54;;;;;;;2.17;1.42;;;8.90;99.90;;;;;;5007730;28;20779;-86
2022/05/30 10:33:54;;;;;;;2.90;2.63;;;8.90;99.90;;;;;;4991230;28;20466;-82
2022/05/30 10:36:58;;;;;;;2.50;1.80;;;9.10;99.90;;;;;;4930087;29;20481;-83
2022/05/30 10:39:59;;;;;;;2.47;1.70;;;9.10;99.90;;;;;;4930167;29;20539;-82
2022/05/30 10:42:29;;;;;;;2.25;1.67;;;9.20;99.90;;;;;;4926681;29;20833;-82
2022/05/30 10:45:06;;;;;;;2.05;1.90;;;9.30;99.90;;;;;;4929949;29;20394;-84
2022/05/30 10:47:39;;;;;;;1.58;1.48;;;9.30;99.90;;;;;;4930181;29;20398;-84
2022/05/30 10:50:17;;;;;;;1.50;1.40;;;9.30;99.90;;;;;;4930185;29;20381;-82
2022/05/30 10:53:00;;;;;;;1.48;1.38;;;9.30;99.90;;;;;;4923668;29;20433;-82
2022/05/30 10:55:43;;;;;;;1.40;1.30;;;9.30;99.90;;;;;;4930565;29;20386;-82
2022/05/30 10:58:55;;;;;;;1.77;1.38;;;9.30;99.90;;;;;;4931236;29;20389;-83
2022/05/30 11:01:41;;;;;;;1.52;1.23;;;9.20;99.90;;;;;;4979835;28;20508;-82
2022/05/30 11:04:28;;;;;;;1.27;1.17;;;9.10;99.90;;;;;;4931261;29;20398;-85
2022/05/30 11:07:00;;;;;;;1.85;1.20;;;9.00;99.90;;;;;;4930217;29;20849;-85
2022/05/30 11:09:38;;;;;;;2.50;1.30;;;9.00;99.90;;;;;;4929709;29;20943;-85
2022/05/30 11:12:41;;;;;;;1.55;1.20;;;8.90;99.90;;;;;;4939822;28;20799;-85
2022/05/30 11:15:26;;;;;;;1.93;1.20;;;9.00;99.90;;;;;;5007055;28;20379;-83
2022/05/30 11:17:55;;;;;;;2.85;1.35;;;9.00;99.90;;;;;;5007287;28;20374;-84
2022/05/30 11:20:28;;;;;;;1.80;1.70;;;9.10;99.90;;;;;;5006984;28;20455;-82
2022/05/30 11:22:56;;;;;;;1.40;1.30;;;9.30;99.90;;;;;;5007058;28;20375;-84
2022/05/30 11:25:47;;;;;;;2.08;1.00;;;9.40;99.90;;;;;;4990745;28;20437;-83
2022/05/30 11:28:39;;;;;;;1.98;1.00;;;9.40;99.90;;;;;;5007401;28;20406;-84
2022/05/30 11:31:25;;;;;;;0.80;0.60;;;9.60;99.90;;;;;;5006693;28;20434;-84
2022/05/30 11:34:03;;;;;;;0.75;0.50;;;10.10;99.90;;;;;;5007236;28;20375;-84
2022/05/30 11:36:51;;;;;;;1.10;0.60;;;10.40;99.90;;;;;;5007283;28;20398;-84
2022/05/30 11:40:02;;;;;;;1.10;0.60;;;10.60;99.90;;;;;;5006659;28;20380;-84
2022/05/30 11:42:41;;;;;;;0.95;0.63;;;10.80;99.90;;;;;;5088816;28;20352;-85
2022/05/30 11:45:19;;;;;;;1.02;0.68;;;10.70;99.90;;;;;;5088392;28;20373;-83
2022/05/30 11:48:13;;;;;;;1.10;0.70;;;10.60;99.90;;;;;;5088615;28;20372;-84
2022/05/30 11:51:14;;;;;;;0.90;0.80;;;10.40;99.90;;;;;;5088326;28;20368;-82
2022/05/30 11:57:23;;;;;;;2.00;0.82;;;10.30;99.90;;;;;;5006652;28;20731;-82
2022/05/30 12:00:14;;;;;;;1.07;0.80;;;10.20;99.90;;;;;;5006991;28;20371;-82
2022/05/30 12:03:26;;;;;;;1.75;0.70;;;10.20;99.90;;;;;;5006520;28;20515;-82
2022/05/30 12:05:59;;;;;;;1.02;0.80;;;10.20;99.90;;;;;;5007289;28;20765;-85
2022/05/30 12:08:38;;;;;;;1.15;0.70;;;10.30;99.90;;;;;;4990167;28;20375;-84
2022/05/30 12:11:27;;;;;;;0.93;0.80;;;10.40;99.90;;;;;;5006640;28;20379;-85
2022/05/30 12:14:17;;;;;;;1.27;1.00;;;10.30;99.90;;;;;;5006260;28;20371;-85
2022/05/30 12:17:04;;;;;;;2.05;1.08;;;10.20;99.90;;;;;;5006379;28;20386;-83
2022/05/30 12:25:36;;;;;;;1.88;0.90;;;10.60;99.90;;;;;;5010415;28;20434;-82
2022/05/30 12:28:26;;;;;;;1.33;0.77;;;10.90;99.90;;;;;;5009872;28;20383;-82
2022/05/30 12:30:59;;;;;;;1.40;0.60;;;11.00;99.90;;;;;;5080952;28;20383;-82
2022/05/30 12:33:32;;;;;;;1.10;0.60;;;11.20;99.90;;;;;;5091969;28;20364;-82
2022/05/30 12:36:11;;;;;;;0.75;0.47;;;11.50;99.90;;;;;;5091731;28;20399;-83
2022/05/30 12:38:57;;;;;;;1.65;0.50;;;11.70;99.90;;;;;;5073574;28;20388;-83
2022/05/30 12:41:32;;;;;;;0.93;0.40;;;11.70;99.90;;;;;;5091767;28;20377;-83
2022/05/30 12:44:00;;;;;;;1.05;0.40;;;11.90;99.90;;;;;;5091774;28;20375;-82
2022/05/30 12:46:30;;;;;;;1.45;0.60;;;11.80;99.90;;;;;;5091524;28;20396;-83
2022/05/30 12:49:43;;;;;;;0.90;0.40;;;11.80;99.90;;;;;;5092367;28;20709;-83
2022/05/30 12:52:17;;;;;;;1.13;0.43;;;11.80;99.90;;;;;;5086867;28;20375;-85
2022/05/30 12:55:01;;;;;;;1.95;0.52;;;12.00;99.90;;;;;;5091355;28;20396;-85
2022/05/30 12:57:43;;;;;;;1.48;0.40;;;12.00;99.90;;;;;;5091218;28;20368;-83
2022/05/30 13:00:35;;;;;;;0.60;0.50;;;12.00;99.90;;;;;;5091170;28;20376;-83
2022/05/30 13:03:13;;;;;;;1.60;0.60;;;12.00;99.90;;;;;;5080545;28;20392;-83
2022/05/30 13:06:10;;;;;;;1.95;0.45;;;11.90;99.90;;;;;;5091261;28;20412;-86
2022/05/30 13:09:07;;;;;;;3.03;0.55;;;11.60;99.90;;;;;;5091120;28;20392;-81
2022/05/30 13:12:02;;;;;;;2.20;0.60;;;11.40;99.90;;;;;;5072985;28;20456;-81
2022/05/30 13:14:32;;;;;;;2.50;0.70;;;11.30;99.90;;;;;;4989477;28;20385;-83
2022/05/30 13:17:18;;;;;;;2.78;0.50;;;11.00;99.90;;;;;;4989741;28;20749;-82
2022/05/30 13:19:58;;;;;;;1.45;0.60;;;11.20;99.90;;;;;;4989566;28;20432;-82
2022/05/30 13:22:55;;;;;;;2.17;0.57;;;11.40;99.90;;;;;;4989289;28;20388;-81
2022/05/30 13:25:39;;;;;;;1.60;0.50;;;11.50;99.90;;;;;;4989945;28;20397;-82
2022/05/30 13:28:32;;;;;;;1.70;0.40;;;11.50;99.90;;;;;;4989251;28;20373;-82
2022/05/30 13:31:04;;;;;;;0.70;0.40;;;11.50;99.90;;;;;;4988844;28;20384;-83
2022/05/30 13:33:56;;;;;;;1.52;0.40;;;11.50;99.90;;;;;;4989814;28;20397;-84
2022/05/30 13:36:31;;;;;;;2.33;0.43;;;11.50;99.90;;;;;;5006045;28;20399;-81
2022/05/30 13:38:59;;;;;;;1.40;0.33;;;11.60;99.90;;;;;;5008940;28;20498;-82
2022/05/30 13:41:40;;;;;;;1.60;0.40;;;11.70;99.90;;;;;;5008840;28;20465;-80
2022/05/30 13:44:14;;;;;;;1.33;0.40;;;11.60;99.90;;;;;;5008648;28;20382;-82
2022/05/30 13:47:14;;;;;;;1.38;0.50;;;11.60;99.90;;;;;;5008689;28;20883;-85
2022/05/30 13:49:44;;;;;;;1.40;0.40;;;11.60;99.90;;;;;;4931140;29;20393;-83
2022/05/30 13:52:26;;;;;;;1.20;0.60;;;11.40;99.90;;;;;;4990376;28;20387;-84
2022/05/30 13:54:58;;;;;;;0.93;0.50;;;11.40;99.90;;;;;;5008611;28;20367;-82